Time;durP1;ratioP1;P1;durP2;ratioP2;P2;SDS_P1;SDS_P2;PMS_P1;PMS_P2;Temp;Humidity;BMP_temperature;BMP_pressure;BME280_temperature;BME280_humidity;BME280_pressure;Samples;Min_cycle;Max_cycle;Signal;HPM_P1;HPM_P2
2022/07/03 00:02:07;;;;;;;;;;;;;;;21.16;50.05;101573.06;7274124;19;154522;-83
2022/07/03 00:04:36;;;;;;;;;;;;;;;21.15;49.82;101575.03;7280478;19;154485;-83
2022/07/03 00:07:03;;;;;;;;;;;;;;;21.05;50.22;101582.69;7269964;19;154127;-83
2022/07/03 00:09:31;;;;;;;;;;;;;;;21.17;49.76;101584.00;7272306;19;154231;-83
2022/07/03 00:11:58;;;;;;;;;;;;;;;21.13;49.91;101579.25;7275272;19;152210;-83
2022/07/03 00:14:25;;;;;;;;;;;;;;;21.13;49.60;101576.44;7276269;19;152875;-83
2022/07/03 00:16:51;;;;;;;;;;;;;;;21.17;49.49;101584.00;7274043;19;153211;-84
2022/07/03 00:19:18;;;;;;;;;;;;;;;21.17;49.73;101585.97;7274393;19;152614;-84
2022/07/03 00:21:48;;;;;;;;;;;;;;;21.00;49.46;101585.56;7279503;19;153260;-83
2022/07/03 00:24:28;;;;;;;;;;;;;;;20.77;50.13;101593.63;7278843;19;153916;-84
2022/07/03 00:26:57;;;;;;;;;;;;;;;20.86;50.21;101591.03;7285625;19;152503;-84
2022/07/03 00:29:30;;;;;;;;;;;;;;;20.97;50.13;101580.53;7276289;19;155125;-83
2022/07/03 00:31:57;;;;;;;;;;;;;;;21.08;49.83;101582.09;7279393;19;152274;-83
2022/07/03 00:34:25;;;;;;;;;;;;;;;21.08;49.55;101571.69;7279133;19;153610;-83
2022/07/03 00:36:52;;;;;;;;;;;;;;;21.05;49.75;101589.16;7273512;19;152843;-82
2022/07/03 00:39:19;;;;;;;;;;;;;;;21.03;50.55;101579.38;7275777;19;152123;-85
2022/07/03 00:41:46;;;;;;;;;;;;;;;21.17;49.95;101578.38;7273539;19;153445;-84
2022/07/03 00:44:13;;;;;;;;;;;;;;;21.07;50.43;101572.84;7274217;19;153315;-85
2022/07/03 00:46:40;;;;;;;;;;;;;;;21.20;50.16;101574.16;7282194;19;152190;-84
2022/07/03 00:49:09;;;;;;;;;;;;;;;21.13;49.97;101574.47;7268827;19;153811;-85
2022/07/03 00:51:40;;;;;;;;;;;;;;;21.12;50.05;101578.38;7278760;19;153570;-83
2022/07/03 00:54:08;;;;;;;;;;;;;;;21.10;50.31;101574.22;7281567;19;152899;-84
2022/07/03 00:56:37;;;;;;;;;;;;;;;21.07;50.47;101581.28;7276107;19;154205;-83
2022/07/03 00:59:04;;;;;;;;;;;;;;;21.02;50.82;101583.28;7279179;19;153788;-84
2022/07/03 01:01:35;;;;;;;;;;;;;;;20.95;51.14;101589.25;7279902;19;153161;-84
2022/07/03 01:04:20;;;;;;;;;;;;;;;20.98;51.31;101587.84;7278551;19;153702;-85
2022/07/03 01:07:00;;;;;;;;;;;;;;;20.91;51.70;101582.56;7278974;19;152281;-84
2022/07/03 01:09:47;;;;;;;;;;;;;;;20.99;51.42;101584.72;7288225;19;153718;-84
2022/07/03 01:12:20;;;;;;;;;;;;;;;20.95;51.46;101577.16;7285038;19;152101;-85
2022/07/03 01:14:53;;;;;;;;;;;;;;;20.94;51.94;101587.56;7285454;19;153108;-84
2022/07/03 01:17:25;;;;;;;;;;;;;;;21.12;51.67;101586.81;7283097;19;154508;-86
2022/07/03 01:19:59;;;;;;;;;;;;;;;21.15;51.55;101579.81;7283900;19;152088;-85
2022/07/03 01:22:30;;;;;;;;;;;;;;;21.08;51.76;101587.72;7284579;19;153617;-86
2022/07/03 01:24:59;;;;;;;;;;;;;;;21.18;51.44;101591.28;7282629;19;153927;-85
2022/07/03 01:27:46;;;;;;;;;;;;;;;21.17;51.35;101585.97;7286122;19;152329;-85
2022/07/03 01:30:13;;;;;;;;;;;;;;;21.22;51.70;101586.75;7283520;19;152407;-85
2022/07/03 01:32:51;;;;;;;;;;;;;;;21.21;51.26;101587.06;7289130;19;153483;-85
2022/07/03 01:35:24;;;;;;;;;;;;;;;21.21;51.73;101587.88;7281564;19;153148;-85
2022/07/03 01:37:51;;;;;;;;;;;;;;;21.27;51.74;101580.25;7282594;19;155663;-85
2022/07/03 01:40:18;;;;;;;;;;;;;;;21.26;51.60;101592.59;7284967;19;152366;-85
2022/07/03 01:42:57;;;;;;;;;;;;;;;21.19;51.85;101595.78;7285083;19;154116;-85
2022/07/03 01:45:27;;;;;;;;;;;;;;;21.25;52.00;101599.38;7283318;19;154003;-85
2022/07/03 01:47:56;;;;;;;;;;;;;;;21.28;51.56;101602.44;7284348;19;152929;-85
2022/07/03 01:50:24;;;;;;;;;;;;;;;21.18;52.17;101594.09;7284469;19;153287;-85
2022/07/03 01:52:52;;;;;;;;;;;;;;;21.21;52.33;101589.88;7280439;19;153302;-84
2022/07/03 01:55:19;;;;;;;;;;;;;;;21.20;52.16;101591.84;7292943;19;152045;-84
2022/07/03 01:57:49;;;;;;;;;;;;;;;21.21;52.48;101595.50;7285411;19;154846;-84
2022/07/03 02:00:26;;;;;;;;;;;;;;;21.21;52.62;101598.31;7285234;19;151927;-84
2022/07/03 02:03:01;;;;;;;;;;;;;;;21.19;52.17;101590.16;7285283;19;153399;-84
2022/07/03 02:05:38;;;;;;;;;;;;;;;21.16;52.80;101606.78;7277582;19;155557;-85
2022/07/03 02:08:12;;;;;;;;;;;;;;;21.23;52.56;101601.66;7284313;19;152177;-84
2022/07/03 02:10:46;;;;;;;;;;;;;;;21.17;52.87;101594.38;7283502;19;152258;-84
2022/07/03 02:13:22;;;;;;;;;;;;;;;21.18;52.75;101598.88;7285462;19;155026;-84
2022/07/03 02:15:54;;;;;;;;;;;;;;;21.18;53.00;101593.25;7284794;19;152352;-85
2022/07/03 02:18:26;;;;;;;;;;;;;;;21.23;52.54;101593.22;7289556;19;153808;-85
2022/07/03 02:21:02;;;;;;;;;;;;;;;21.26;52.59;101589.78;7283881;19;152102;-84
2022/07/03 02:23:37;;;;;;;;;;;;;;;21.22;52.79;101592.38;7285399;19;152861;-84
2022/07/03 02:26:16;;;;;;;;;;;;;;;21.26;52.98;101595.41;7281803;19;153459;-84
2022/07/03 02:29:03;;;;;;;;;;;;;;;21.27;52.90;101599.91;7284718;19;153282;-84
2022/07/03 02:31:33;;;;;;;;;;;;;;;21.25;53.30;101588.16;7283900;19;152270;-84
2022/07/03 02:34:01;;;;;;;;;;;;;;;21.28;52.92;101585.56;7283831;19;154097;-84
2022/07/03 02:36:29;;;;;;;;;;;;;;;21.29;53.15;101587.25;7282623;19;151791;-84
2022/07/03 02:38:57;;;;;;;;;;;;;;;21.29;53.17;101584.44;7282816;19;152869;-84
2022/07/03 02:41:27;;;;;;;;;;;;;;;21.28;53.11;101591.19;7290636;19;154426;-84
2022/07/03 02:44:13;;;;;;;;;;;;;;;21.25;53.40;101582.53;7284985;19;154632;-85
2022/07/03 02:46:49;;;;;;;;;;;;;;;21.33;53.08;101595.06;7283525;19;155124;-84
2022/07/03 02:49:35;;;;;;;;;;;;;;;21.33;53.00;101595.91;7282040;19;152376;-84
2022/07/03 02:52:21;;;;;;;;;;;;;;;21.29;53.22;101592.88;7280236;19;153145;-84
2022/07/03 02:54:51;;;;;;;;;;;;;;;21.30;53.24;101596.53;7282035;19;152972;-84
2022/07/03 02:57:22;;;;;;;;;;;;;;;21.25;53.30;101602.19;7279947;19;152578;-85
2022/07/03 03:00:03;;;;;;;;;;;;;;;21.22;53.32;101603.63;7281816;19;154352;-85
2022/07/03 03:02:40;;;;;;;;;;;;;;;21.29;53.61;101601.31;7290807;19;155671;-84
2022/07/03 03:05:07;;;;;;;;;;;;;;;21.26;53.72;101599.06;7279738;19;152789;-84
2022/07/03 03:07:34;;;;;;;;;;;;;;;21.28;53.42;101596.81;7279194;19;153536;-84
2022/07/03 03:10:01;;;;;;;;;;;;;;;21.25;53.50;101596.56;7280698;19;153338;-84
2022/07/03 03:12:35;;;;;;;;;;;;;;;21.30;53.35;101596.53;7283157;19;156506;-84
2022/07/03 03:15:03;;;;;;;;;;;;;;;21.29;53.04;101600.47;7282230;19;153155;-85
2022/07/03 03:17:41;;;;;;;;;;;;;;;21.29;53.32;101594.84;7282166;19;152548;-85
2022/07/03 03:20:09;;;;;;;;;;;;;;;21.26;53.34;101601.88;7281463;19;152869;-85
2022/07/03 03:22:39;;;;;;;;;;;;;;;21.26;53.67;101595.41;7278537;19;153145;-85
2022/07/03 03:25:10;;;;;;;;;;;;;;;21.23;53.57;101590.41;7287833;19;152635;-85
2022/07/03 03:27:37;;;;;;;;;;;;;;;21.20;53.90;101591.84;7283111;19;152634;-84
2022/07/03 03:30:06;;;;;;;;;;;;;;;21.15;54.10;101582.63;7277750;19;152099;-83
2022/07/03 03:32:36;;;;;;;;;;;;;;;21.15;54.10;101591.06;7282537;19;153839;-84
2022/07/03 03:35:03;;;;;;;;;;;;;;;21.14;54.10;101586.56;7276252;19;152463;-84
2022/07/03 03:37:30;;;;;;;;;;;;;;;21.09;54.30;101589.41;7281196;19;151865;-85
2022/07/03 03:39:57;;;;;;;;;;;;;;;21.19;54.08;101586.50;7281662;19;153715;-85
2022/07/03 03:42:25;;;;;;;;;;;;;;;21.13;54.56;101593.31;7282693;19;153225;-84
2022/07/03 03:44:52;;;;;;;;;;;;;;;21.16;54.66;101598.38;7282943;19;151985;-85
2022/07/03 03:47:19;;;;;;;;;;;;;;;21.13;54.21;101596.97;7290078;19;153210;-85
2022/07/03 03:49:45;;;;;;;;;;;;;;;21.15;54.31;101596.69;7276714;19;153788;-84
2022/07/03 03:52:12;;;;;;;;;;;;;;;21.12;54.34;101600.06;7279310;19;152756;-84
2022/07/03 03:54:39;;;;;;;;;;;;;;;21.12;54.96;101597.25;7282621;19;154048;-84
2022/07/03 03:57:16;;;;;;;;;;;;;;;21.09;54.93;101606.25;7281987;19;152394;-84
2022/07/03 03:59:42;;;;;;;;;;;;;;;21.15;54.86;101603.13;7281969;19;152959;-85
2022/07/03 04:02:09;;;;;;;;;;;;;;;21.14;54.55;101601.47;7280984;19;155403;-85
2022/07/03 04:04:36;;;;;;;;;;;;;;;21.11;54.90;101602.03;7278984;19;152149;-84
2022/07/03 04:07:04;;;;;;;;;;;;;;;21.15;54.97;101608.75;7276663;19;154030;-85
2022/07/03 04:09:31;;;;;;;;;;;;;;;21.12;54.73;101605.69;7285467;19;153353;-84
2022/07/03 04:11:58;;;;;;;;;;;;;;;21.10;54.94;101607.94;7280417;19;153559;-84
2022/07/03 04:14:24;;;;;;;;;;;;;;;21.15;54.93;101605.09;7281191;19;153482;-84
2022/07/03 04:16:51;;;;;;;;;;;;;;;21.11;55.01;101604.84;7279199;19;152720;-83
2022/07/03 04:19:18;;;;;;;;;;;;;;;21.10;55.07;101608.78;7279469;19;153526;-84
2022/07/03 04:21:45;;;;;;;;;;;;;;;21.13;55.36;101615.78;7275957;19;152995;-84
2022/07/03 04:24:12;;;;;;;;;;;;;;;21.11;55.58;101620.84;7280061;19;151783;-84
2022/07/03 04:26:38;;;;;;;;;;;;;;;21.10;55.75;101619.16;7280290;19;154260;-84
2022/07/03 04:29:05;;;;;;;;;;;;;;;21.13;55.58;101611.00;7279060;19;152463;-84
2022/07/03 04:31:32;;;;;;;;;;;;;;;21.10;55.62;101617.22;7285877;19;152229;-85
2022/07/03 04:33:59;;;;;;;;;;;;;;;21.10;55.58;101616.38;7278622;19;153792;-86
2022/07/03 04:36:25;;;;;;;;;;;;;;;21.14;55.35;101623.94;7279396;19;151938;-86
2022/07/03 04:38:52;;;;;;;;;;;;;;;21.13;55.57;101622.25;7281143;19;154945;-85
2022/07/03 04:41:19;;;;;;;;;;;;;;;21.17;55.52;101617.72;7278522;19;152942;-84
2022/07/03 04:43:45;;;;;;;;;;;;;;;21.14;55.54;101623.09;7286416;19;152384;-85
2022/07/03 04:46:12;;;;;;;;;;;;;;;21.20;55.29;101628.38;7285646;19;154740;-84
2022/07/03 04:48:39;;;;;;;;;;;;;;;21.21;54.67;101629.22;7285290;19;153694;-85
2022/07/03 04:51:06;;;;;;;;;;;;;;;21.20;54.91;101628.38;7283208;19;152726;-85
2022/07/03 04:53:33;;;;;;;;;;;;;;;21.16;55.45;101632.09;7291731;19;154181;-86
2022/07/03 04:55:59;;;;;;;;;;;;;;;21.23;54.95;101630.59;7284753;19;152323;-85
2022/07/03 04:58:26;;;;;;;;;;;;;;;21.18;55.00;101627.81;7288489;19;152803;-85
2022/07/03 05:00:53;;;;;;;;;;;;;;;21.22;55.28;101625.25;7283714;19;155036;-84
2022/07/03 05:03:19;;;;;;;;;;;;;;;21.14;55.40;101628.72;7287418;19;152094;-84
2022/07/03 05:05:46;;;;;;;;;;;;;;;21.09;55.39;101638.00;7284395;19;156414;-84
2022/07/03 05:08:14;;;;;;;;;;;;;;;21.04;55.40;101637.22;7284317;19;152873;-84
2022/07/03 05:10:40;;;;;;;;;;;;;;;21.05;55.57;101630.47;7285930;19;153040;-83
2022/07/03 05:13:09;;;;;;;;;;;;;;;21.03;55.71;101633.56;7291253;19;153318;-84
2022/07/03 05:15:36;;;;;;;;;;;;;;;21.02;55.89;101636.69;7287542;19;152674;-84
2022/07/03 05:18:03;;;;;;;;;;;;;;;21.07;55.60;101643.09;7286528;19;154217;-84
2022/07/03 05:20:30;;;;;;;;;;;;;;;21.12;55.52;101648.63;7281800;19;153101;-84
2022/07/03 05:22:57;;;;;;;;;;;;;;;21.11;55.51;101647.00;7284905;19;152217;-84
2022/07/03 05:25:24;;;;;;;;;;;;;;;21.16;55.85;101649.78;7284380;19;153870;-84
2022/07/03 05:27:55;;;;;;;;;;;;;;;21.15;55.39;101638.84;7284340;19;153886;-84
2022/07/03 05:30:22;;;;;;;;;;;;;;;21.11;55.38;101640.53;7283776;19;152067;-84
2022/07/03 05:32:49;;;;;;;;;;;;;;;21.06;55.75;101647.03;7286380;19;153782;-84
2022/07/03 05:35:17;;;;;;;;;;;;;;;21.10;55.52;101652.91;7288906;19;152976;-84
2022/07/03 05:37:43;;;;;;;;;;;;;;;21.11;55.16;101661.03;7283399;19;153673;-85
2022/07/03 05:40:10;;;;;;;;;;;;;;;21.16;54.90;101657.38;7284842;19;154210;-84
2022/07/03 05:42:37;;;;;;;;;;;;;;;21.17;55.11;101653.41;7284742;19;152489;-84
2022/07/03 05:45:04;;;;;;;;;;;;;;;21.22;54.67;101657.00;7285911;19;152743;-84
2022/07/03 05:47:31;;;;;;;;;;;;;;;21.17;55.25;101654.25;7284877;19;154663;-85
2022/07/03 05:49:58;;;;;;;;;;;;;;;21.17;54.90;101653.41;7281621;19;152385;-85
2022/07/03 05:52:25;;;;;;;;;;;;;;;21.14;54.95;101652.03;7283987;19;152732;-84
2022/07/03 05:55:00;;;;;;;;;;;;;;;21.08;55.28;101660.75;7284535;19;154233;-84
2022/07/03 05:57:27;;;;;;;;;;;;;;;21.18;54.68;101653.13;7293540;19;154974;-84
2022/07/03 05:59:59;;;;;;;;;;;;;;;21.14;54.84;101668.06;7281495;19;154473;-84
2022/07/03 06:02:25;;;;;;;;;;;;;;;21.12;55.33;101659.06;7285867;19;152178;-85
2022/07/03 06:04:52;;;;;;;;;;;;;;;21.06;55.12;101649.84;7283987;19;151990;-85
2022/07/03 06:07:19;;;;;;;;;;;;;;;21.11;55.24;101647.00;7280701;19;155644;-84
2022/07/03 06:09:48;;;;;;;;;;;;;;;21.10;54.96;101659.34;7284498;19;152447;-83
2022/07/03 06:12:14;;;;;;;;;;;;;;;21.06;55.19;101654.63;7283659;19;152857;-83
2022/07/03 06:14:41;;;;;;;;;;;;;;;21.07;55.37;101643.09;7284736;19;154658;-84
2022/07/03 06:17:08;;;;;;;;;;;;;;;21.10;55.33;101653.72;7282114;19;152192;-84
2022/07/03 06:19:35;;;;;;;;;;;;;;;21.06;55.61;101649.84;7291370;19;154350;-83
2022/07/03 06:22:02;;;;;;;;;;;;;;;21.04;55.12;101643.66;7284118;19;151719;-84
2022/07/03 06:24:28;;;;;;;;;;;;;;;21.02;55.31;101645.09;7285684;19;152126;-83
2022/07/03 06:26:55;;;;;;;;;;;;;;;21.05;55.72;101645.34;7281561;19;153034;-83
2022/07/03 06:29:22;;;;;;;;;;;;;;;21.04;55.38;101654.06;7284306;19;151636;-83
2022/07/03 06:31:49;;;;;;;;;;;;;;;21.02;55.22;101654.38;7281250;19;153167;-83
2022/07/03 06:34:16;;;;;;;;;;;;;;;21.04;55.87;101654.06;7280586;19;154304;-83
2022/07/03 06:36:43;;;;;;;;;;;;;;;21.09;55.58;101642.78;7283819;19;153519;-84
2022/07/03 06:39:09;;;;;;;;;;;;;;;21.08;55.43;101653.19;7283884;19;153723;-83
2022/07/03 06:41:36;;;;;;;;;;;;;;;21.14;55.05;101652.03;7291080;19;153618;-84
2022/07/03 06:44:03;;;;;;;;;;;;;;;21.11;55.11;101660.19;7283769;19;152875;-84
2022/07/03 06:46:30;;;;;;;;;;;;;;;21.11;55.53;101655.41;7281989;19;155166;-84
2022/07/03 06:48:56;;;;;;;;;;;;;;;21.03;55.64;101666.47;7284661;19;151993;-84
2022/07/03 06:51:23;;;;;;;;;;;;;;;21.09;55.31;101656.84;7280410;19;153884;-85
2022/07/03 06:53:55;;;;;;;;;;;;;;;21.04;55.78;101654.91;7281262;19;155450;-84
2022/07/03 06:56:22;;;;;;;;;;;;;;;21.09;55.58;101663.28;7282513;19;152656;-84
2022/07/03 06:58:55;;;;;;;;;;;;;;;21.13;55.40;101657.94;7284880;19;152507;-84
2022/07/03 07:01:22;;;;;;;;;;;;;;;21.09;55.37;101659.63;7282570;19;153742;-84
2022/07/03 07:03:51;;;;;;;;;;;;;;;21.15;55.01;101661.31;7289513;19;151995;-84
2022/07/03 07:06:18;;;;;;;;;;;;;;;21.11;54.98;101657.38;7275968;19;154476;-84
2022/07/03 07:08:45;;;;;;;;;;;;;;;21.10;55.50;101658.50;7282434;19;152309;-84
2022/07/03 07:11:12;;;;;;;;;;;;;;;21.06;55.14;101655.47;7281218;19;152500;-84
2022/07/03 07:13:51;;;;;;;;;;;;;;;21.05;55.63;101656.59;7281592;19;155543;-83
2022/07/03 07:16:20;;;;;;;;;;;;;;;21.03;55.72;101652.41;7283874;19;151945;-84
2022/07/03 07:18:47;;;;;;;;;;;;;;;20.99;55.72;101651.28;7281198;19;152448;-84
2022/07/03 07:21:14;;;;;;;;;;;;;;;20.97;55.61;101656.38;7278858;19;154027;-83
2022/07/03 07:23:47;;;;;;;;;;;;;;;20.99;55.60;101656.91;7290902;19;152939;-84
2022/07/03 07:26:14;;;;;;;;;;;;;;;20.97;55.80;101660.03;7282916;19;153967;-84
2022/07/03 07:28:41;;;;;;;;;;;;;;;21.03;55.67;101667.28;7282503;19;152346;-84
2022/07/03 07:31:08;;;;;;;;;;;;;;;21.09;55.23;101668.06;7282597;19;152976;-83
2022/07/03 07:33:34;;;;;;;;;;;;;;;21.04;55.20;101670.91;7281655;19;154203;-83
2022/07/03 07:36:09;;;;;;;;;;;;;;;21.00;55.77;101670.69;7280758;19;152624;-83
2022/07/03 07:38:36;;;;;;;;;;;;;;;20.96;55.72;101675.22;7280030;19;153915;-83
2022/07/03 07:41:03;;;;;;;;;;;;;;;21.00;55.59;101681.91;7280301;19;154576;-83
2022/07/03 07:43:35;;;;;;;;;;;;;;;21.11;55.62;101674.25;7282933;19;152165;-83
2022/07/03 07:46:04;;;;;;;;;;;;;;;21.03;55.59;101681.31;7288044;19;153567;-84
2022/07/03 07:48:33;;;;;;;;;;;;;;;21.01;55.63;101680.78;7282473;19;152088;-84
2022/07/03 07:51:01;;;;;;;;;;;;;;;21.02;55.83;101687.25;7278930;19;153396;-84
2022/07/03 07:53:27;;;;;;;;;;;;;;;21.04;55.87;101682.16;7278791;19;152302;-84
2022/07/03 07:55:54;;;;;;;;;;;;;;;21.05;55.78;101679.06;7280061;19;152521;-84
2022/07/03 07:58:22;;;;;;;;;;;;;;;21.06;55.60;101683.56;7280670;19;153778;-84
2022/07/03 08:06:23;;;;;;;;;;;;;;;21.00;55.81;101692.31;7277208;19;153976;-82
2022/07/03 08:08:50;;;;;;;;;;;;;;;21.00;55.86;101695.97;7288560;19;152842;-83
2022/07/03 08:11:16;;;;;;;;;;;;;;;21.02;55.72;101690.91;7278669;19;152643;-83
2022/07/03 08:13:51;;;;;;;;;;;;;;;20.98;56.10;101691.78;7280590;19;153786;-84
2022/07/03 08:16:18;;;;;;;;;;;;;;;21.06;55.69;101692.00;7284217;19;152510;-83
2022/07/03 08:18:45;;;;;;;;;;;;;;;21.08;55.32;101694.47;7288197;19;153655;-84
2022/07/03 08:21:12;;;;;;;;;;;;;;;21.09;55.69;101685.78;7285459;19;152328;-84
2022/07/03 08:23:38;;;;;;;;;;;;;;;21.04;55.40;101684.97;7287201;19;152582;-84
2022/07/03 08:26:19;;;;;;;;;;;;;;;21.01;56.07;101696.81;7292883;19;152036;-83
2022/07/03 08:28:46;;;;;;;;;;;;;;;21.05;55.21;101695.09;7291647;19;154516;-83
2022/07/03 08:31:13;;;;;;;;;;;;;;;21.01;55.44;101688.38;7299230;19;153716;-84
2022/07/03 08:33:50;;;;;;;;;;;;;;;21.02;55.48;101688.09;7287521;19;154711;-84
2022/07/03 08:36:18;;;;;;;;;;;;;;;21.00;55.55;101695.13;7289518;19;153583;-84
2022/07/03 08:38:48;;;;;;;;;;;;;;;21.02;55.51;101690.91;7289757;19;154662;-85
2022/07/03 08:41:16;;;;;;;;;;;;;;;21.01;55.30;101694.00;7283379;19;152354;-83
2022/07/03 08:43:57;;;;;;;;;;;;;;;21.01;55.45;101694.84;7287199;19;152461;-84
2022/07/03 08:46:25;;;;;;;;;;;;;;;21.01;55.37;101689.22;7291477;19;152758;-84
2022/07/03 08:48:53;;;;;;;;;;;;;;;21.01;55.47;101696.81;7285774;19;153594;-83
2022/07/03 08:51:21;;;;;;;;;;;;;;;21.08;55.54;101688.88;7284329;19;152831;-84
2022/07/03 08:53:54;;;;;;;;;;;;;;;21.12;55.25;101684.38;7294170;19;151957;-83
2022/07/03 08:56:22;;;;;;;;;;;;;;;21.06;55.62;101691.16;7286976;19;152077;-83
2022/07/03 08:58:49;;;;;;;;;;;;;;;21.06;55.76;101688.34;7286907;19;153289;-83
2022/07/03 09:01:17;;;;;;;;;;;;;;;21.05;55.66;101683.84;7284833;19;152686;-84
2022/07/03 09:03:56;;;;;;;;;;;;;;;21.04;55.57;101683.00;7285430;19;152403;-82
2022/07/03 09:06:24;;;;;;;;;;;;;;;21.13;55.74;101684.06;7284034;19;154023;-82
2022/07/03 09:08:51;;;;;;;;;;;;;;;21.15;55.34;101678.19;7286675;19;153998;-83
2022/07/03 09:11:18;;;;;;;;;;;;;;;21.17;55.09;101682.34;7293340;19;153658;-82
2022/07/03 09:13:50;;;;;;;;;;;;;;;21.09;54.60;101684.94;7292741;19;154075;-81
2022/07/03 09:16:20;;;;;;;;;;;;;;;21.04;53.80;101684.97;7291652;19;152405;-82
2022/07/03 09:18:47;;;;;;;;;;;;;;;21.05;54.50;101686.66;7285910;19;153514;-80
2022/07/03 09:21:15;;;;;;;;;;;;;;;20.99;52.28;101691.47;7283147;19;154195;-80
2022/07/03 09:23:55;;;;;;;;;;;;;;;21.02;51.25;101684.44;7287541;19;152014;-80
2022/07/03 09:26:27;;;;;;;;;;;;;;;21.04;51.01;101679.34;7286605;19;152686;-80
2022/07/03 09:28:55;;;;;;;;;;;;;;;21.02;52.02;101679.66;7286085;19;153961;-80
2022/07/03 09:31:26;;;;;;;;;;;;;;;21.10;53.07;101689.41;7284360;19;152069;-81
2022/07/03 09:33:58;;;;;;;;;;;;;;;21.12;52.22;101684.38;7285596;19;153013;-81
2022/07/03 09:36:41;;;;;;;;;;;;;;;21.07;51.98;101690.03;7286882;19;153817;-81
2022/07/03 09:39:16;;;;;;;;;;;;;;;20.98;52.58;101684.19;7285485;19;153329;-82
2022/07/03 09:42:02;;;;;;;;;;;;;;;20.99;52.85;101685.00;7283481;19;153115;-81
2022/07/03 09:44:34;;;;;;;;;;;;;;;21.02;53.26;101698.50;7242038;19;152662;-81
2022/07/03 09:47:20;;;;;;;;;;;;;;;21.03;52.32;101692.56;7275817;19;153876;-81
2022/07/03 09:49:47;;;;;;;;;;;;;;;21.07;52.03;101688.06;7281838;19;153456;-81
2022/07/03 09:52:26;;;;;;;;;;;;;;;21.05;51.90;101692.28;7283882;19;152225;-81
2022/07/03 09:54:53;;;;;;;;;;;;;;;21.04;51.92;101696.22;7283985;19;153305;-81
2022/07/03 09:57:20;;;;;;;;;;;;;;;21.04;51.92;101699.84;7284906;19;153367;-80
2022/07/03 09:59:47;;;;;;;;;;;;;;;21.10;51.27;101697.84;7293081;19;152681;-81
2022/07/03 10:02:19;;;;;;;;;;;;;;;21.06;51.44;101691.16;7283977;19;154334;-81
2022/07/03 10:04:46;;;;;;;;;;;;;;;21.02;51.35;101696.53;7284164;19;152057;-81
2022/07/03 10:07:13;;;;;;;;;;;;;;;21.01;51.88;101691.19;7282474;19;153994;-81
2022/07/03 10:09:40;;;;;;;;;;;;;;;21.05;51.75;101683.84;7283279;19;153258;-81
2022/07/03 10:12:07;;;;;;;;;;;;;;;21.10;51.96;101686.63;7293171;19;151910;-82
2022/07/03 10:14:34;;;;;;;;;;;;;;;21.13;49.61;101686.03;7302979;19;153813;-83
2022/07/03 10:17:02;;;;;;;;;;;;;;;21.05;49.21;101684.69;7298677;19;153872;-82
2022/07/03 10:19:39;;;;;;;;;;;;;;;20.92;48.14;101690.97;7292334;19;152361;-82
2022/07/03 10:22:18;;;;;;;;;;;;;;;20.97;47.65;101695.72;7300878;19;153887;-82
2022/07/03 10:24:47;;;;;;;;;;;;;;;20.89;47.96;101685.13;7292728;19;152034;-82
2022/07/03 10:27:14;;;;;;;;;;;;;;;20.90;47.94;101684.81;7302125;19;152666;-82
2022/07/03 10:29:42;;;;;;;;;;;;;;;20.86;47.87;101689.31;7287939;19;153903;-82
2022/07/03 10:32:11;;;;;;;;;;;;;;;20.78;47.95;101687.16;7288528;19;152252;-82
2022/07/03 10:34:38;;;;;;;;;;;;;;;20.75;47.98;101694.22;7284748;19;153409;-82
2022/07/03 10:37:23;;;;;;;;;;;;;;;20.71;47.99;101684.69;7287657;19;153853;-82
2022/07/03 10:46:36;;;;;;;;;;;;;;;20.65;47.67;101691.47;7286702;19;155512;-82
2022/07/03 10:49:30;;;;;;;;;;;;;;;20.67;47.67;101689.19;7278220;19;152022;-82
2022/07/03 10:52:20;;;;;;;;;;;;;;;20.86;47.82;101689.31;7300627;19;152262;-82
2022/07/03 10:54:56;;;;;;;;;;;;;;;20.97;47.30;101692.91;7298391;19;151752;-81
2022/07/03 11:00:43;;;;;;;;;;;;;;;20.96;46.32;101683.63;7067507;19;4805838;-55
2022/07/03 11:03:11;;;;;;;;;;;;;;;20.99;46.38;101685.00;7307686;19;152206;-55
2022/07/03 11:05:39;;;;;;;;;;;;;;;20.97;46.59;101682.50;7309259;19;152649;-56
2022/07/03 11:08:08;;;;;;;;;;;;;;;20.99;46.17;101687.81;7312372;19;152586;-55
2022/07/03 11:11:54;;;;;;;;;;;;;;;21.01;45.98;101674.31;7312901;19;153349;-55
2022/07/03 11:14:20;;;;;;;;;;;;;;;21.21;46.18;101677.00;7311224;19;153046;-55
2022/07/03 11:17:26;;;;;;;;;;;;;;;21.27;45.69;101684.22;7308243;19;152455;-55
2022/07/03 11:23:34;;;;;;;;;;;;;;;21.42;44.85;101684.09;7314359;19;152373;-55
2022/07/03 11:26:10;;;;;;;;;;;;;;;21.49;43.73;101687.38;7311915;19;152740;-55
2022/07/03 11:28:44;;;;;;;;;;;;;;;21.47;43.61;101672.81;7313903;19;152412;-55
2022/07/03 11:31:29;;;;;;;;;;;;;;;21.49;43.68;101676.13;7312678;19;155319;-56
2022/07/03 11:37:14;;;;;;;;;;;;;;;21.47;43.36;101686.00;7312426;19;152309;-55
2022/07/03 11:40:19;;;;;;;;;;;;;;;21.43;43.31;101680.16;7311976;19;154398;-55
2022/07/03 11:45:56;;;;;;;;;;;;;;;21.43;43.85;101684.94;7309132;19;152167;-55
2022/07/03 11:48:40;;;;;;;;;;;;;;;21.40;44.09;101682.69;7309053;19;152946;-55
2022/07/03 11:51:14;;;;;;;;;;;;;;;21.35;44.24;101683.59;7306175;19;153035;-55
2022/07/03 11:53:48;;;;;;;;;;;;;;;21.37;44.25;101678.53;7308465;19;153373;-55
2022/07/03 11:56:27;;;;;;;;;;;;;;;21.41;44.24;101687.19;7304769;19;154849;-55
2022/07/03 11:59:06;;;;;;;;;;;;;;;21.35;44.27;101679.97;7310512;19;153149;-55
2022/07/03 12:01:37;;;;;;;;;;;;;;;21.43;43.83;101677.34;7311993;19;153138;-55
2022/07/03 12:04:16;;;;;;;;;;;;;;;21.46;44.32;101687.97;7310166;19;152825;-55
2022/07/03 12:06:50;;;;;;;;;;;;;;;21.52;42.85;101677.53;7310722;19;153216;-55
2022/07/03 12:09:33;;;;;;;;;;;;;;;21.64;42.73;101684.41;7308902;19;155532;-55
2022/07/03 12:12:01;;;;;;;;;;;;;;;21.71;44.21;101679.25;7289409;19;153652;-60
2022/07/03 12:14:38;;;;;;;;;;;;;;;21.69;43.70;101686.34;7283756;19;152840;-60
2022/07/03 12:17:07;;;;;;;;;;;;;;;21.71;43.65;101681.25;7278665;19;153308;-61
2022/07/03 12:19:35;;;;;;;;;;;;;;;21.67;44.10;101685.78;7277240;19;152413;-60
2022/07/03 12:22:02;;;;;;;;;;;;;;;21.66;44.34;101682.16;7279289;19;153722;-60
2022/07/03 12:24:29;;;;;;;;;;;;;;;21.67;44.05;101686.63;7279900;19;154223;-61
2022/07/03 12:27:03;;;;;;;;;;;;;;;21.67;44.22;101686.63;7283321;19;152449;-61
2022/07/03 12:29:31;;;;;;;;;;;;;;;21.67;44.48;101686.63;7284085;19;154885;-61
2022/07/03 12:31:58;;;;;;;;;;;;;;;21.73;44.19;101678.97;7282305;19;152895;-60
2022/07/03 12:34:25;;;;;;;;;;;;;;;21.74;44.62;101681.50;7289188;19;151944;-61
2022/07/03 12:36:54;;;;;;;;;;;;;;;21.73;44.75;101677.00;7279709;19;154027;-61
2022/07/03 12:39:21;;;;;;;;;;;;;;;21.75;44.70;101687.97;7282168;19;152162;-61
2022/07/03 12:41:48;;;;;;;;;;;;;;;21.78;44.83;101687.34;7281264;19;152656;-60
2022/07/03 12:44:20;;;;;;;;;;;;;;;21.80;44.76;101695.50;7282102;19;153012;-60
2022/07/03 12:46:48;;;;;;;;;;;;;;;21.82;44.43;101685.63;7281956;19;156248;-60
2022/07/03 12:49:15;;;;;;;;;;;;;;;21.84;44.35;101683.34;7275324;19;152793;-60
2022/07/03 12:51:46;;;;;;;;;;;;;;;21.86;44.46;101681.06;7277543;19;154132;-60
2022/07/03 12:54:15;;;;;;;;;;;;;;;21.86;44.94;101680.22;7280226;19;152078;-61
2022/07/03 12:56:42;;;;;;;;;;;;;;;21.88;44.59;101677.97;7288388;19;152672;-61
2022/07/03 12:59:19;;;;;;;;;;;;;;;21.87;44.58;101668.69;7279782;19;153868;-60
2022/07/03 13:01:58;;;;;;;;;;;;;;;21.91;44.68;101669.75;7282028;19;152861;-60
2022/07/03 13:04:35;;;;;;;;;;;;;;;21.92;44.64;101671.44;7279436;19;153413;-61
2022/07/03 13:07:04;;;;;;;;;;;;;;;21.87;45.17;101665.03;7276470;19;152684;-60
2022/07/03 13:09:32;;;;;;;;;;;;;;;21.88;44.83;101672.34;7281454;19;152735;-61